sensor_id;sensor_type;location;lat;lon;timestamp;temperature;humidity
1391;DHT22;690;51.454;7.194;2022-12-29T00:00:17;12.50;14.30
1391;DHT22;690;51.454;7.194;2022-12-29T00:02:44;12.50;44.60
1391;DHT22;690;51.454;7.194;2022-12-29T00:05:13;12.60;19.80
1391;DHT22;690;51.454;7.194;2022-12-29T00:07:40;12.60;1.00
1391;DHT22;690;51.454;7.194;2022-12-29T00:10:07;12.60;1.00
1391;DHT22;690;51.454;7.194;2022-12-29T00:12:34;12.60;1.00
1391;DHT22;690;51.454;7.194;2022-12-29T00:15:19;12.70;1.00
1391;DHT22;690;51.454;7.194;2022-12-29T00:18:04;12.70;1.00
1391;DHT22;690;51.454;7.194;2022-12-29T00:20:35;12.70;1.00
1391;DHT22;690;51.454;7.194;2022-12-29T00:23:20;12.70;1.00
1391;DHT22;690;51.454;7.194;2022-12-29T00:26:10;12.70;1.00
1391;DHT22;690;51.454;7.194;2022-12-29T00:28:56;12.70;1.00
1391;DHT22;690;51.454;7.194;2022-12-29T00:31:40;12.80;1.00
1391;DHT22;690;51.454;7.194;2022-12-29T00:34:24;12.80;1.00
1391;DHT22;690;51.454;7.194;2022-12-29T00:37:10;12.80;1.00
1391;DHT22;690;51.454;7.194;2022-12-29T00:39:37;12.70;99.90
1391;DHT22;690;51.454;7.194;2022-12-29T00:42:35;12.70;99.90
1391;DHT22;690;51.454;7.194;2022-12-29T00:45:20;12.70;1.00
1391;DHT22;690;51.454;7.194;2022-12-29T00:47:47;12.70;1.00
1391;DHT22;690;51.454;7.194;2022-12-29T00:50:13;12.70;1.00
1391;DHT22;690;51.454;7.194;2022-12-29T00:52:41;12.70;1.00
1391;DHT22;690;51.454;7.194;2022-12-29T00:55:08;12.70;1.00
1391;DHT22;690;51.454;7.194;2022-12-29T00:57:35;12.70;1.00
1391;DHT22;690;51.454;7.194;2022-12-29T01:00:02;12.70;1.00
1391;DHT22;690;51.454;7.194;2022-12-29T01:02:29;12.70;1.00
1391;DHT22;690;51.454;7.194;2022-12-29T01:04:56;12.70;1.00
1391;DHT22;690;51.454;7.194;2022-12-29T01:07:23;12.80;1.00
1391;DHT22;690;51.454;7.194;2022-12-29T01:09:51;12.80;1.00
1391;DHT22;690;51.454;7.194;2022-12-29T01:12:38;12.80;1.00
1391;DHT22;690;51.454;7.194;2022-12-29T01:15:08;12.80;1.00
1391;DHT22;690;51.454;7.194;2022-12-29T01:17:35;12.80;1.00
1391;DHT22;690;51.454;7.194;2022-12-29T01:20:03;12.80;1.00
1391;DHT22;690;51.454;7.194;2022-12-29T01:22:30;12.80;1.00
1391;DHT22;690;51.454;7.194;2022-12-29T01:24:58;12.80;1.00
1391;DHT22;690;51.454;7.194;2022-12-29T01:27:25;12.80;1.00
1391;DHT22;690;51.454;7.194;2022-12-29T01:29:52;12.80;1.00
1391;DHT22;690;51.454;7.194;2022-12-29T01:32:19;12.80;1.00
1391;DHT22;690;51.454;7.194;2022-12-29T01:34:46;12.80;1.00
1391;DHT22;690;51.454;7.194;2022-12-29T01:37:12;12.80;1.00
1391;DHT22;690;51.454;7.194;2022-12-29T01:39:39;12.80;20.10
1391;DHT22;690;51.454;7.194;2022-12-29T01:42:14;12.80;1.00
1391;DHT22;690;51.454;7.194;2022-12-29T01:44:53;12.90;1.00
1391;DHT22;690;51.454;7.194;2022-12-29T01:47:30;12.90;1.00
1391;DHT22;690;51.454;7.194;2022-12-29T01:50:03;12.90;1.00
1391;DHT22;690;51.454;7.194;2022-12-29T01:52:33;12.90;1.00
1391;DHT22;690;51.454;7.194;2022-12-29T01:55:02;12.90;1.00
1391;DHT22;690;51.454;7.194;2022-12-29T01:57:34;12.90;1.00
1391;DHT22;690;51.454;7.194;2022-12-29T02:00:05;13.00;1.00
1391;DHT22;690;51.454;7.194;2022-12-29T02:02:34;13.00;1.00
1391;DHT22;690;51.454;7.194;2022-12-29T02:05:07;13.10;1.00
1391;DHT22;690;51.454;7.194;2022-12-29T02:07:36;13.10;1.00
1391;DHT22;690;51.454;7.194;2022-12-29T02:10:04;13.10;1.00
1391;DHT22;690;51.454;7.194;2022-12-29T02:12:33;13.10;1.00
1391;DHT22;690;51.454;7.194;2022-12-29T02:15:02;13.10;99.90
1391;DHT22;690;51.454;7.194;2022-12-29T02:17:50;13.10;99.90
1391;DHT22;690;51.454;7.194;2022-12-29T02:26:56;13.20;1.00
1391;DHT22;690;51.454;7.194;2022-12-29T02:29:57;13.20;1.00
1391;DHT22;690;51.454;7.194;2022-12-29T02:32:36;13.20;1.00
1391;DHT22;690;51.454;7.194;2022-12-29T02:35:11;13.20;1.00
1391;DHT22;690;51.454;7.194;2022-12-29T02:37:43;13.20;1.00
1391;DHT22;690;51.454;7.194;2022-12-29T02:40:22;13.30;99.90
1391;DHT22;690;51.454;7.194;2022-12-29T02:42:54;13.30;33.60
1391;DHT22;690;51.454;7.194;2022-12-29T02:45:30;13.30;1.00
1391;DHT22;690;51.454;7.194;2022-12-29T02:48:04;13.30;1.00
1391;DHT22;690;51.454;7.194;2022-12-29T02:50:36;13.30;1.00
1391;DHT22;690;51.454;7.194;2022-12-29T02:53:06;13.30;1.00
1391;DHT22;690;51.454;7.194;2022-12-29T02:55:34;13.40;1.00
1391;DHT22;690;51.454;7.194;2022-12-29T02:58:15;13.40;99.90
1391;DHT22;690;51.454;7.194;2022-12-29T03:00:54;13.40;99.90
1391;DHT22;690;51.454;7.194;2022-12-29T03:03:28;13.40;99.90
1391;DHT22;690;51.454;7.194;2022-12-29T03:06:09;13.40;1.00
1391;DHT22;690;51.454;7.194;2022-12-29T03:08:46;13.40;1.00
1391;DHT22;690;51.454;7.194;2022-12-29T03:11:15;13.40;1.00
1391;DHT22;690;51.454;7.194;2022-12-29T03:14:02;13.40;99.90
1391;DHT22;690;51.454;7.194;2022-12-29T03:16:55;13.50;99.90
1391;DHT22;690;51.454;7.194;2022-12-29T03:19:27;13.50;99.90
1391;DHT22;690;51.454;7.194;2022-12-29T03:21:57;13.50;85.00
1391;DHT22;690;51.454;7.194;2022-12-29T03:24:46;13.50;41.40
1391;DHT22;690;51.454;7.194;2022-12-29T03:27:16;13.60;1.00
1391;DHT22;690;51.454;7.194;2022-12-29T03:29:46;13.60;1.00
1391;DHT22;690;51.454;7.194;2022-12-29T03:32:19;13.60;1.00
1391;DHT22;690;51.454;7.194;2022-12-29T03:34:49;13.50;1.00
1391;DHT22;690;51.454;7.194;2022-12-29T03:37:20;13.60;1.00
1391;DHT22;690;51.454;7.194;2022-12-29T03:39:47;13.60;1.00
1391;DHT22;690;51.454;7.194;2022-12-29T03:42:18;13.60;1.00
1391;DHT22;690;51.454;7.194;2022-12-29T03:44:46;13.60;1.00
1391;DHT22;690;51.454;7.194;2022-12-29T03:47:14;13.70;1.00
1391;DHT22;690;51.454;7.194;2022-12-29T03:49:41;13.70;1.00
1391;DHT22;690;51.454;7.194;2022-12-29T03:52:09;13.60;1.00
1391;DHT22;690;51.454;7.194;2022-12-29T03:54:36;13.60;1.00
1391;DHT22;690;51.454;7.194;2022-12-29T03:57:03;13.70;1.00
1391;DHT22;690;51.454;7.194;2022-12-29T03:59:30;13.70;1.00
1391;DHT22;690;51.454;7.194;2022-12-29T04:01:56;13.70;1.00
1391;DHT22;690;51.454;7.194;2022-12-29T04:04:23;13.70;1.00
1391;DHT22;690;51.454;7.194;2022-12-29T04:06:50;13.70;1.00
1391;DHT22;690;51.454;7.194;2022-12-29T04:09:18;13.60;1.00
1391;DHT22;690;51.454;7.194;2022-12-29T04:11:45;13.60;1.00
1391;DHT22;690;51.454;7.194;2022-12-29T04:14:12;13.60;1.00
1391;DHT22;690;51.454;7.194;2022-12-29T04:16:39;13.50;1.00
1391;DHT22;690;51.454;7.194;2022-12-29T04:19:06;13.50;1.00
1391;DHT22;690;51.454;7.194;2022-12-29T04:21:33;13.50;1.00
1391;DHT22;690;51.454;7.194;2022-12-29T04:24:00;13.50;1.00
1391;DHT22;690;51.454;7.194;2022-12-29T04:26:28;13.50;1.00
1391;DHT22;690;51.454;7.194;2022-12-29T04:28:55;13.50;1.00
1391;DHT22;690;51.454;7.194;2022-12-29T04:31:22;13.40;1.00
1391;DHT22;690;51.454;7.194;2022-12-29T04:33:49;13.40;1.00
1391;DHT22;690;51.454;7.194;2022-12-29T04:36:15;13.40;1.00
1391;DHT22;690;51.454;7.194;2022-12-29T04:38:42;13.40;1.00
1391;DHT22;690;51.454;7.194;2022-12-29T04:41:09;13.40;1.00
1391;DHT22;690;51.454;7.194;2022-12-29T04:43:37;13.40;1.00
1391;DHT22;690;51.454;7.194;2022-12-29T04:46:04;13.40;1.00
1391;DHT22;690;51.454;7.194;2022-12-29T04:48:31;13.40;1.00
1391;DHT22;690;51.454;7.194;2022-12-29T04:50:58;13.40;1.00
1391;DHT22;690;51.454;7.194;2022-12-29T04:53:25;13.40;1.00
1391;DHT22;690;51.454;7.194;2022-12-29T04:55:52;13.40;1.00
1391;DHT22;690;51.454;7.194;2022-12-29T04:58:20;13.40;1.00
1391;DHT22;690;51.454;7.194;2022-12-29T05:00:48;13.50;1.00
1391;DHT22;690;51.454;7.194;2022-12-29T05:03:15;13.50;1.00
1391;DHT22;690;51.454;7.194;2022-12-29T05:05:42;13.50;1.00
1391;DHT22;690;51.454;7.194;2022-12-29T05:08:08;13.60;1.00
1391;DHT22;690;51.454;7.194;2022-12-29T05:10:36;13.50;1.00
1391;DHT22;690;51.454;7.194;2022-12-29T05:13:02;13.60;1.00
1391;DHT22;690;51.454;7.194;2022-12-29T05:15:29;13.60;1.00
1391;DHT22;690;51.454;7.194;2022-12-29T05:17:57;13.70;99.90
1391;DHT22;690;51.454;7.194;2022-12-29T05:20:24;13.70;99.90
1391;DHT22;690;51.454;7.194;2022-12-29T05:22:51;13.70;99.90
1391;DHT22;690;51.454;7.194;2022-12-29T05:25:18;13.80;99.90
1391;DHT22;690;51.454;7.194;2022-12-29T05:27:45;13.80;99.90
1391;DHT22;690;51.454;7.194;2022-12-29T05:30:12;13.90;99.90
1391;DHT22;690;51.454;7.194;2022-12-29T05:32:39;13.80;99.90
1391;DHT22;690;51.454;7.194;2022-12-29T05:35:08;13.90;99.90
1391;DHT22;690;51.454;7.194;2022-12-29T05:37:35;13.90;99.90
1391;DHT22;690;51.454;7.194;2022-12-29T05:40:02;13.90;99.90
1391;DHT22;690;51.454;7.194;2022-12-29T05:42:29;13.90;99.90
1391;DHT22;690;51.454;7.194;2022-12-29T05:44:55;13.90;98.50
1391;DHT22;690;51.454;7.194;2022-12-29T05:47:22;13.90;62.10
1391;DHT22;690;51.454;7.194;2022-12-29T05:49:49;13.90;48.00
1391;DHT22;690;51.454;7.194;2022-12-29T05:52:18;14.00;30.10
1391;DHT22;690;51.454;7.194;2022-12-29T05:54:45;14.00;1.40
1391;DHT22;690;51.454;7.194;2022-12-29T05:57:12;14.00;1.00
1391;DHT22;690;51.454;7.194;2022-12-29T05:59:38;14.00;1.00
1391;DHT22;690;51.454;7.194;2022-12-29T06:02:05;14.00;1.00
1391;DHT22;690;51.454;7.194;2022-12-29T06:04:32;13.90;1.00
1391;DHT22;690;51.454;7.194;2022-12-29T06:06:59;13.90;1.00
1391;DHT22;690;51.454;7.194;2022-12-29T06:09:27;13.80;1.00
1391;DHT22;690;51.454;7.194;2022-12-29T06:11:54;13.80;11.30
1391;DHT22;690;51.454;7.194;2022-12-29T06:14:20;13.80;22.60
1391;DHT22;690;51.454;7.194;2022-12-29T06:16:47;13.70;40.20
1391;DHT22;690;51.454;7.194;2022-12-29T06:19:14;13.70;47.00
1391;DHT22;690;51.454;7.194;2022-12-29T06:21:41;13.70;68.20
1391;DHT22;690;51.454;7.194;2022-12-29T06:24:08;13.60;92.10
1391;DHT22;690;51.454;7.194;2022-12-29T06:26:37;13.70;99.90
1391;DHT22;690;51.454;7.194;2022-12-29T06:29:05;13.60;99.90
1391;DHT22;690;51.454;7.194;2022-12-29T06:31:33;13.60;99.90
1391;DHT22;690;51.454;7.194;2022-12-29T06:34:00;13.60;99.90
1391;DHT22;690;51.454;7.194;2022-12-29T06:36:28;13.60;99.90
1391;DHT22;690;51.454;7.194;2022-12-29T06:38:55;13.60;99.90
1391;DHT22;690;51.454;7.194;2022-12-29T06:41:21;13.60;99.90
1391;DHT22;690;51.454;7.194;2022-12-29T06:43:50;13.50;99.90
1391;DHT22;690;51.454;7.194;2022-12-29T06:46:17;13.50;99.90
1391;DHT22;690;51.454;7.194;2022-12-29T06:48:44;13.50;99.90
1391;DHT22;690;51.454;7.194;2022-12-29T06:51:11;13.50;99.90
1391;DHT22;690;51.454;7.194;2022-12-29T06:53:38;13.50;99.90
1391;DHT22;690;51.454;7.194;2022-12-29T06:56:05;13.50;99.90
1391;DHT22;690;51.454;7.194;2022-12-29T06:58:32;13.50;99.90
1391;DHT22;690;51.454;7.194;2022-12-29T07:01:00;13.60;99.90
1391;DHT22;690;51.454;7.194;2022-12-29T07:03:27;13.50;99.90
1391;DHT22;690;51.454;7.194;2022-12-29T07:05:54;13.50;99.90
1391;DHT22;690;51.454;7.194;2022-12-29T07:08:20;13.60;80.60
1391;DHT22;690;51.454;7.194;2022-12-29T07:10:47;13.50;67.60
1391;DHT22;690;51.454;7.194;2022-12-29T07:13:14;13.50;58.30
1391;DHT22;690;51.454;7.194;2022-12-29T07:15:41;13.60;45.90
1391;DHT22;690;51.454;7.194;2022-12-29T07:18:09;13.60;32.10
1391;DHT22;690;51.454;7.194;2022-12-29T07:20:36;13.60;21.70
1391;DHT22;690;51.454;7.194;2022-12-29T07:23:03;13.60;21.70
1391;DHT22;690;51.454;7.194;2022-12-29T07:25:29;13.60;9.90
1391;DHT22;690;51.454;7.194;2022-12-29T07:27:56;13.60;1.00
1391;DHT22;690;51.454;7.194;2022-12-29T07:30:23;13.60;1.00
1391;DHT22;690;51.454;7.194;2022-12-29T07:32:50;13.60;1.00
1391;DHT22;690;51.454;7.194;2022-12-29T07:35:18;13.60;1.00
1391;DHT22;690;51.454;7.194;2022-12-29T07:37:45;13.60;1.00
1391;DHT22;690;51.454;7.194;2022-12-29T07:40:12;13.50;1.00
1391;DHT22;690;51.454;7.194;2022-12-29T07:42:39;13.60;1.00
1391;DHT22;690;51.454;7.194;2022-12-29T07:45:07;13.60;1.00
1391;DHT22;690;51.454;7.194;2022-12-29T07:47:34;13.60;1.00
1391;DHT22;690;51.454;7.194;2022-12-29T07:50:01;13.50;1.00
1391;DHT22;690;51.454;7.194;2022-12-29T07:52:29;13.60;1.00
1391;DHT22;690;51.454;7.194;2022-12-29T07:54:56;13.60;1.00
1391;DHT22;690;51.454;7.194;2022-12-29T07:57:23;13.60;1.00
1391;DHT22;690;51.454;7.194;2022-12-29T07:59:50;13.60;1.00
1391;DHT22;690;51.454;7.194;2022-12-29T08:02:16;13.60;1.00
1391;DHT22;690;51.454;7.194;2022-12-29T08:04:43;13.60;1.00
1391;DHT22;690;51.454;7.194;2022-12-29T08:07:10;13.60;1.00
1391;DHT22;690;51.454;7.194;2022-12-29T08:09:38;13.60;1.00
1391;DHT22;690;51.454;7.194;2022-12-29T08:12:06;13.60;1.00
1391;DHT22;690;51.454;7.194;2022-12-29T08:14:32;13.60;1.00
1391;DHT22;690;51.454;7.194;2022-12-29T08:16:59;13.60;1.00
1391;DHT22;690;51.454;7.194;2022-12-29T08:19:26;13.60;1.00
1391;DHT22;690;51.454;7.194;2022-12-29T08:21:53;13.50;1.00
1391;DHT22;690;51.454;7.194;2022-12-29T08:24:20;13.50;1.00
1391;DHT22;690;51.454;7.194;2022-12-29T08:26:49;13.50;1.00
1391;DHT22;690;51.454;7.194;2022-12-29T08:29:15;13.50;1.00
1391;DHT22;690;51.454;7.194;2022-12-29T08:31:42;13.50;1.00
1391;DHT22;690;51.454;7.194;2022-12-29T08:34:09;13.50;1.00
1391;DHT22;690;51.454;7.194;2022-12-29T08:36:36;13.50;1.00
1391;DHT22;690;51.454;7.194;2022-12-29T08:39:03;13.50;1.00
1391;DHT22;690;51.454;7.194;2022-12-29T08:41:30;13.50;1.00
1391;DHT22;690;51.454;7.194;2022-12-29T08:43:58;13.50;1.00
1391;DHT22;690;51.454;7.194;2022-12-29T08:46:25;13.50;1.00
1391;DHT22;690;51.454;7.194;2022-12-29T08:48:53;13.60;1.00
1391;DHT22;690;51.454;7.194;2022-12-29T08:51:20;13.60;1.00
1391;DHT22;690;51.454;7.194;2022-12-29T08:53:46;13.60;1.00
1391;DHT22;690;51.454;7.194;2022-12-29T08:56:13;13.60;1.00
1391;DHT22;690;51.454;7.194;2022-12-29T08:58:40;13.60;1.00
1391;DHT22;690;51.454;7.194;2022-12-29T09:01:09;13.60;1.00
1391;DHT22;690;51.454;7.194;2022-12-29T09:03:37;13.60;1.00
1391;DHT22;690;51.454;7.194;2022-12-29T09:06:03;13.60;1.00
1391;DHT22;690;51.454;7.194;2022-12-29T09:08:30;13.60;1.00
1391;DHT22;690;51.454;7.194;2022-12-29T09:11:06;13.60;1.00
1391;DHT22;690;51.454;7.194;2022-12-29T09:13:33;13.40;1.00
1391;DHT22;690;51.454;7.194;2022-12-29T09:16:00;13.50;1.00
1391;DHT22;690;51.454;7.194;2022-12-29T09:18:29;13.40;1.00
1391;DHT22;690;51.454;7.194;2022-12-29T09:20:57;13.30;1.00
1391;DHT22;690;51.454;7.194;2022-12-29T09:23:24;13.30;1.00
1391;DHT22;690;51.454;7.194;2022-12-29T09:25:51;13.30;1.00
1391;DHT22;690;51.454;7.194;2022-12-29T09:28:18;13.40;1.00
1391;DHT22;690;51.454;7.194;2022-12-29T09:30:45;13.30;1.00
1391;DHT22;690;51.454;7.194;2022-12-29T09:33:12;13.40;1.00
1391;DHT22;690;51.454;7.194;2022-12-29T09:35:43;13.40;1.00
1391;DHT22;690;51.454;7.194;2022-12-29T09:38:10;13.40;1.00
1391;DHT22;690;51.454;7.194;2022-12-29T09:40:38;13.50;1.00
1391;DHT22;690;51.454;7.194;2022-12-29T09:43:16;13.50;1.00
1391;DHT22;690;51.454;7.194;2022-12-29T09:45:53;13.50;1.00
1391;DHT22;690;51.454;7.194;2022-12-29T09:48:23;13.60;1.00
1391;DHT22;690;51.454;7.194;2022-12-29T09:50:56;13.50;1.00
1391;DHT22;690;51.454;7.194;2022-12-29T09:53:28;13.50;1.00
1391;DHT22;690;51.454;7.194;2022-12-29T09:55:59;13.50;1.00
1391;DHT22;690;51.454;7.194;2022-12-29T09:58:32;13.50;1.00
1391;DHT22;690;51.454;7.194;2022-12-29T10:01:04;13.50;1.00
1391;DHT22;690;51.454;7.194;2022-12-29T10:03:38;13.60;1.00
1391;DHT22;690;51.454;7.194;2022-12-29T10:06:12;13.60;1.00
1391;DHT22;690;51.454;7.194;2022-12-29T10:08:44;13.60;1.00
1391;DHT22;690;51.454;7.194;2022-12-29T10:11:24;13.60;1.00
1391;DHT22;690;51.454;7.194;2022-12-29T10:14:06;13.60;1.00
1391;DHT22;690;51.454;7.194;2022-12-29T10:16:42;13.60;1.00
1391;DHT22;690;51.454;7.194;2022-12-29T10:19:23;13.60;1.00
1391;DHT22;690;51.454;7.194;2022-12-29T10:22:03;13.60;1.00
1391;DHT22;690;51.454;7.194;2022-12-29T10:24:38;13.60;1.00
1391;DHT22;690;51.454;7.194;2022-12-29T10:27:09;13.60;1.00
1391;DHT22;690;51.454;7.194;2022-12-29T10:29:40;13.60;1.00
1391;DHT22;690;51.454;7.194;2022-12-29T10:32:21;13.60;1.00
1391;DHT22;690;51.454;7.194;2022-12-29T10:34:52;13.60;1.00
1391;DHT22;690;51.454;7.194;2022-12-29T10:37:29;13.60;1.00
1391;DHT22;690;51.454;7.194;2022-12-29T10:39:58;13.60;1.00
1391;DHT22;690;51.454;7.194;2022-12-29T10:42:27;13.70;1.00
1391;DHT22;690;51.454;7.194;2022-12-29T10:44:55;13.70;1.00
1391;DHT22;690;51.454;7.194;2022-12-29T10:47:26;13.70;1.00
1391;DHT22;690;51.454;7.194;2022-12-29T10:49:54;13.70;1.00
1391;DHT22;690;51.454;7.194;2022-12-29T10:52:26;13.60;1.00
1391;DHT22;690;51.454;7.194;2022-12-29T10:54:56;13.60;1.00
1391;DHT22;690;51.454;7.194;2022-12-29T10:57:27;13.70;1.00
1391;DHT22;690;51.454;7.194;2022-12-29T10:59:56;13.60;1.00
1391;DHT22;690;51.454;7.194;2022-12-29T11:05:35;13.60;1.00
1391;DHT22;690;51.454;7.194;2022-12-29T11:08:09;13.60;1.00
1391;DHT22;690;51.454;7.194;2022-12-29T11:10:39;13.50;1.00
1391;DHT22;690;51.454;7.194;2022-12-29T11:13:12;13.60;1.00
1391;DHT22;690;51.454;7.194;2022-12-29T11:15:41;13.60;1.00
1391;DHT22;690;51.454;7.194;2022-12-29T11:18:18;13.60;1.00
1391;DHT22;690;51.454;7.194;2022-12-29T11:20:46;13.60;1.00
1391;DHT22;690;51.454;7.194;2022-12-29T11:23:29;13.70;1.00
1391;DHT22;690;51.454;7.194;2022-12-29T11:26:11;13.60;1.00
1391;DHT22;690;51.454;7.194;2022-12-29T11:28:39;13.60;1.00
1391;DHT22;690;51.454;7.194;2022-12-29T11:31:08;13.50;1.00
1391;DHT22;690;51.454;7.194;2022-12-29T11:33:36;13.50;1.00
1391;DHT22;690;51.454;7.194;2022-12-29T11:36:06;13.50;1.00
1391;DHT22;690;51.454;7.194;2022-12-29T11:38:38;13.50;1.00
1391;DHT22;690;51.454;7.194;2022-12-29T11:41:06;13.50;1.00
1391;DHT22;690;51.454;7.194;2022-12-29T11:43:38;13.50;1.00
1391;DHT22;690;51.454;7.194;2022-12-29T11:46:06;13.50;1.00
1391;DHT22;690;51.454;7.194;2022-12-29T11:48:41;13.50;1.00
1391;DHT22;690;51.454;7.194;2022-12-29T11:51:09;13.50;1.00
1391;DHT22;690;51.454;7.194;2022-12-29T11:53:43;13.50;1.00
1391;DHT22;690;51.454;7.194;2022-12-29T11:56:15;13.60;1.00
1391;DHT22;690;51.454;7.194;2022-12-29T11:58:43;13.60;1.00
1391;DHT22;690;51.454;7.194;2022-12-29T12:01:15;13.60;1.00
1391;DHT22;690;51.454;7.194;2022-12-29T12:03:47;13.60;1.00
1391;DHT22;690;51.454;7.194;2022-12-29T12:06:20;13.60;1.00
1391;DHT22;690;51.454;7.194;2022-12-29T12:08:54;13.60;1.00
1391;DHT22;690;51.454;7.194;2022-12-29T12:11:25;13.60;1.00
1391;DHT22;690;51.454;7.194;2022-12-29T12:13:59;13.70;1.00
1391;DHT22;690;51.454;7.194;2022-12-29T12:16:30;13.70;1.00
1391;DHT22;690;51.454;7.194;2022-12-29T12:19:03;13.70;1.00
1391;DHT22;690;51.454;7.194;2022-12-29T12:21:38;13.70;1.00
1391;DHT22;690;51.454;7.194;2022-12-29T12:24:20;13.70;1.00
1391;DHT22;690;51.454;7.194;2022-12-29T12:26:57;13.80;1.00
1391;DHT22;690;51.454;7.194;2022-12-29T12:29:32;13.70;1.00
1391;DHT22;690;51.454;7.194;2022-12-29T12:32:06;13.70;1.00
1391;DHT22;690;51.454;7.194;2022-12-29T12:34:37;13.70;1.00
1391;DHT22;690;51.454;7.194;2022-12-29T12:37:19;13.70;1.00
1391;DHT22;690;51.454;7.194;2022-12-29T12:40:09;13.70;1.00
1391;DHT22;690;51.454;7.194;2022-12-29T12:42:50;13.70;1.00
1391;DHT22;690;51.454;7.194;2022-12-29T12:45:35;13.70;1.00
1391;DHT22;690;51.454;7.194;2022-12-29T12:48:18;13.60;1.00
1391;DHT22;690;51.454;7.194;2022-12-29T12:50:53;13.60;1.00
1391;DHT22;690;51.454;7.194;2022-12-29T12:53:37;13.60;1.00
1391;DHT22;690;51.454;7.194;2022-12-29T12:56:21;13.60;1.00
1391;DHT22;690;51.454;7.194;2022-12-29T12:58:57;13.60;1.00
1391;DHT22;690;51.454;7.194;2022-12-29T13:01:37;13.60;1.00
1391;DHT22;690;51.454;7.194;2022-12-29T13:04:38;13.60;1.00
1391;DHT22;690;51.454;7.194;2022-12-29T13:07:16;13.60;1.00
1391;DHT22;690;51.454;7.194;2022-12-29T13:10:03;13.50;1.00
1391;DHT22;690;51.454;7.194;2022-12-29T13:12:38;13.50;1.00
1391;DHT22;690;51.454;7.194;2022-12-29T13:15:19;13.50;1.00
1391;DHT22;690;51.454;7.194;2022-12-29T13:17:54;13.50;1.00
1391;DHT22;690;51.454;7.194;2022-12-29T13:20:30;13.50;1.00
1391;DHT22;690;51.454;7.194;2022-12-29T13:23:05;13.50;1.00
1391;DHT22;690;51.454;7.194;2022-12-29T13:25:37;13.40;1.00
1391;DHT22;690;51.454;7.194;2022-12-29T13:28:13;13.40;1.00
1391;DHT22;690;51.454;7.194;2022-12-29T13:30:48;13.40;1.00
1391;DHT22;690;51.454;7.194;2022-12-29T13:33:23;13.40;1.00
1391;DHT22;690;51.454;7.194;2022-12-29T13:35:59;13.40;1.00
1391;DHT22;690;51.454;7.194;2022-12-29T13:38:32;13.40;1.00
1391;DHT22;690;51.454;7.194;2022-12-29T13:41:03;13.50;1.00
1391;DHT22;690;51.454;7.194;2022-12-29T13:43:34;13.50;1.00
1391;DHT22;690;51.454;7.194;2022-12-29T13:46:06;13.40;1.00
1391;DHT22;690;51.454;7.194;2022-12-29T13:48:38;13.40;1.00
1391;DHT22;690;51.454;7.194;2022-12-29T13:51:08;13.40;1.00
1391;DHT22;690;51.454;7.194;2022-12-29T13:53:47;13.40;1.00
1391;DHT22;690;51.454;7.194;2022-12-29T13:56:21;13.30;1.00
1391;DHT22;690;51.454;7.194;2022-12-29T13:58:55;13.30;1.00
1391;DHT22;690;51.454;7.194;2022-12-29T14:01:29;13.30;1.00
1391;DHT22;690;51.454;7.194;2022-12-29T14:03:58;13.20;1.00
1391;DHT22;690;51.454;7.194;2022-12-29T14:06:26;13.20;1.00
1391;DHT22;690;51.454;7.194;2022-12-29T14:08:56;13.20;1.00
1391;DHT22;690;51.454;7.194;2022-12-29T14:11:30;13.20;1.00
1391;DHT22;690;51.454;7.194;2022-12-29T14:13:59;13.10;1.00
1391;DHT22;690;51.454;7.194;2022-12-29T14:16:37;13.20;1.00
1391;DHT22;690;51.454;7.194;2022-12-29T14:19:10;13.10;1.00
1391;DHT22;690;51.454;7.194;2022-12-29T14:21:38;13.10;1.00
1391;DHT22;690;51.454;7.194;2022-12-29T14:24:41;13.10;1.00
1391;DHT22;690;51.454;7.194;2022-12-29T14:33:12;13.10;1.00
1391;DHT22;690;51.454;7.194;2022-12-29T14:35:42;13.10;1.00
1391;DHT22;690;51.454;7.194;2022-12-29T14:38:18;13.10;1.00
1391;DHT22;690;51.454;7.194;2022-12-29T14:40:46;13.00;1.00
1391;DHT22;690;51.454;7.194;2022-12-29T14:43:23;13.10;1.00
1391;DHT22;690;51.454;7.194;2022-12-29T14:45:58;13.10;1.00
1391;DHT22;690;51.454;7.194;2022-12-29T14:48:41;13.10;1.00
1391;DHT22;690;51.454;7.194;2022-12-29T14:51:24;13.00;1.00
1391;DHT22;690;51.454;7.194;2022-12-29T14:53:52;13.00;1.00
1391;DHT22;690;51.454;7.194;2022-12-29T14:56:23;13.00;1.00
1391;DHT22;690;51.454;7.194;2022-12-29T14:58:53;13.00;1.00
1391;DHT22;690;51.454;7.194;2022-12-29T15:01:26;12.90;1.00
1391;DHT22;690;51.454;7.194;2022-12-29T15:03:56;13.00;1.00
1391;DHT22;690;51.454;7.194;2022-12-29T15:06:25;12.90;1.00
1391;DHT22;690;51.454;7.194;2022-12-29T15:09:00;12.90;1.00
1391;DHT22;690;51.454;7.194;2022-12-29T15:11:43;12.90;1.00
1391;DHT22;690;51.454;7.194;2022-12-29T15:14:35;12.90;1.00
1391;DHT22;690;51.454;7.194;2022-12-29T15:17:23;12.80;1.00
1391;DHT22;690;51.454;7.194;2022-12-29T15:19:51;12.90;1.00
1391;DHT22;690;51.454;7.194;2022-12-29T15:22:17;12.90;1.00
1391;DHT22;690;51.454;7.194;2022-12-29T15:24:45;12.90;1.00
1391;DHT22;690;51.454;7.194;2022-12-29T15:27:14;13.00;1.00
1391;DHT22;690;51.454;7.194;2022-12-29T15:29:43;12.90;1.00
1391;DHT22;690;51.454;7.194;2022-12-29T15:32:20;12.90;1.00
1391;DHT22;690;51.454;7.194;2022-12-29T15:34:49;12.90;1.00
1391;DHT22;690;51.454;7.194;2022-12-29T15:37:22;12.90;1.00
1391;DHT22;690;51.454;7.194;2022-12-29T15:39:50;12.90;1.00
1391;DHT22;690;51.454;7.194;2022-12-29T15:42:30;12.90;1.00
1391;DHT22;690;51.454;7.194;2022-12-29T15:44:59;12.90;1.00
1391;DHT22;690;51.454;7.194;2022-12-29T15:47:31;12.80;1.00
1391;DHT22;690;51.454;7.194;2022-12-29T15:50:02;12.80;1.00
1391;DHT22;690;51.454;7.194;2022-12-29T15:52:31;12.80;1.00
1391;DHT22;690;51.454;7.194;2022-12-29T15:55:00;12.80;1.00
1391;DHT22;690;51.454;7.194;2022-12-29T15:57:29;12.80;1.00
1391;DHT22;690;51.454;7.194;2022-12-29T15:59:57;12.80;1.00
1391;DHT22;690;51.454;7.194;2022-12-29T16:02:25;12.70;1.00
1391;DHT22;690;51.454;7.194;2022-12-29T16:04:54;12.70;1.00
1391;DHT22;690;51.454;7.194;2022-12-29T16:07:26;12.70;1.00
1391;DHT22;690;51.454;7.194;2022-12-29T16:09:57;12.70;1.00
1391;DHT22;690;51.454;7.194;2022-12-29T16:12:28;12.70;1.00
1391;DHT22;690;51.454;7.194;2022-12-29T16:14:58;12.80;1.00
1391;DHT22;690;51.454;7.194;2022-12-29T16:17:28;12.70;1.00
1391;DHT22;690;51.454;7.194;2022-12-29T16:19:59;12.70;1.00
1391;DHT22;690;51.454;7.194;2022-12-29T16:22:30;12.70;1.00
1391;DHT22;690;51.454;7.194;2022-12-29T16:24:59;12.80;1.00
1391;DHT22;690;51.454;7.194;2022-12-29T16:27:32;12.70;1.00
1391;DHT22;690;51.454;7.194;2022-12-29T16:30:04;12.70;1.00
1391;DHT22;690;51.454;7.194;2022-12-29T16:32:32;12.70;1.00
1391;DHT22;690;51.454;7.194;2022-12-29T16:35:21;12.60;1.00
1391;DHT22;690;51.454;7.194;2022-12-29T16:37:49;12.60;1.00
1391;DHT22;690;51.454;7.194;2022-12-29T16:40:33;12.60;1.00
1391;DHT22;690;51.454;7.194;2022-12-29T16:43:00;12.60;1.00
1391;DHT22;690;51.454;7.194;2022-12-29T16:48:29;12.50;1.00
1391;DHT22;690;51.454;7.194;2022-12-29T16:51:04;12.40;1.00
1391;DHT22;690;51.454;7.194;2022-12-29T16:53:34;12.40;1.00
1391;DHT22;690;51.454;7.194;2022-12-29T16:56:06;12.40;1.00
1391;DHT22;690;51.454;7.194;2022-12-29T16:58:35;12.30;1.00
1391;DHT22;690;51.454;7.194;2022-12-29T17:01:04;12.40;1.00
1391;DHT22;690;51.454;7.194;2022-12-29T17:03:47;12.40;1.00
1391;DHT22;690;51.454;7.194;2022-12-29T17:06:16;12.30;1.00
1391;DHT22;690;51.454;7.194;2022-12-29T17:08:44;12.30;1.00
1391;DHT22;690;51.454;7.194;2022-12-29T17:11:20;12.40;1.00
1391;DHT22;690;51.454;7.194;2022-12-29T17:14:08;12.40;1.00
1391;DHT22;690;51.454;7.194;2022-12-29T17:16:39;12.30;1.00